sensor_id;sensor_type;location;lat;lon;timestamp;pressure;altitude;pressure_sealevel;temperature;humidity
8717;BME280;4395;48.554;8.820;2024-02-26T00:00:45;94029.34;;;6.67;53.27
8717;BME280;4395;48.554;8.820;2024-02-26T00:02:49;94019.47;;;6.74;53.60
8717;BME280;4395;48.554;8.820;2024-02-26T00:04:51;94020.25;;;6.74;53.80
8717;BME280;4395;48.554;8.820;2024-02-26T00:06:54;94017.56;;;6.79;53.44
8717;BME280;4395;48.554;8.820;2024-02-26T00:08:57;94007.31;;;6.74;53.34
8717;BME280;4395;48.554;8.820;2024-02-26T00:11:01;93998.66;;;6.84;52.33
8717;BME280;4395;48.554;8.820;2024-02-26T00:13:04;93991.13;;;6.88;51.47
8717;BME280;4395;48.554;8.820;2024-02-26T00:15:08;93999.94;;;6.86;51.46
8717;BME280;4395;48.554;8.820;2024-02-26T00:17:12;94002.66;;;6.95;50.78
8717;BME280;4395;48.554;8.820;2024-02-26T00:19:16;93996.78;;;6.90;51.12
8717;BME280;4395;48.554;8.820;2024-02-26T00:21:19;93996.50;;;6.91;51.42
8717;BME280;4395;48.554;8.820;2024-02-26T00:23:20;93996.00;;;6.89;51.34
8717;BME280;4395;48.554;8.820;2024-02-26T00:25:24;93989.00;;;6.90;51.54
8717;BME280;4395;48.554;8.820;2024-02-26T00:27:27;93993.91;;;6.91;51.72
8717;BME280;4395;48.554;8.820;2024-02-26T00:29:30;93989.78;;;6.90;51.73
8717;BME280;4395;48.554;8.820;2024-02-26T00:31:33;93998.53;;;6.94;51.69
8717;BME280;4395;48.554;8.820;2024-02-26T00:33:35;93983.91;;;6.84;51.76
8717;BME280;4395;48.554;8.820;2024-02-26T00:35:39;93983.63;;;6.86;51.77
8717;BME280;4395;48.554;8.820;2024-02-26T00:37:42;93975.66;;;6.82;52.11
8717;BME280;4395;48.554;8.820;2024-02-26T00:39:45;93976.97;;;6.80;50.64
8717;BME280;4395;48.554;8.820;2024-02-26T00:41:48;93985.56;;;6.75;50.96
8717;BME280;4395;48.554;8.820;2024-02-26T00:43:53;93984.34;;;6.68;50.52
8717;BME280;4395;48.554;8.820;2024-02-26T00:45:55;94005.63;;;6.60;51.11
8717;BME280;4395;48.554;8.820;2024-02-26T00:47:58;94018.06;;;6.58;52.27
8717;BME280;4395;48.554;8.820;2024-02-26T00:50:03;94020.66;;;6.58;54.10
8717;BME280;4395;48.554;8.820;2024-02-26T00:52:07;94012.63;;;6.59;54.61
8717;BME280;4395;48.554;8.820;2024-02-26T00:54:10;94021.66;;;6.62;54.68
8717;BME280;4395;48.554;8.820;2024-02-26T00:56:12;94018.56;;;6.60;55.22
8717;BME280;4395;48.554;8.820;2024-02-26T00:58:15;94018.84;;;6.58;55.22
8717;BME280;4395;48.554;8.820;2024-02-26T01:00:18;94011.31;;;6.62;54.31
8717;BME280;4395;48.554;8.820;2024-02-26T01:02:22;94018.56;;;6.60;54.77
8717;BME280;4395;48.554;8.820;2024-02-26T01:04:24;94018.06;;;6.58;55.03
8717;BME280;4395;48.554;8.820;2024-02-26T01:06:28;94029.44;;;6.57;55.19
8717;BME280;4395;48.554;8.820;2024-02-26T01:08:32;94025.81;;;6.58;55.51
8717;BME280;4395;48.554;8.820;2024-02-26T01:10:34;94031.00;;;6.58;56.12
8717;BME280;4395;48.554;8.820;2024-02-26T01:12:37;94025.88;;;6.53;56.21
8717;BME280;4395;48.554;8.820;2024-02-26T01:14:40;94027.97;;;6.50;56.26
8717;BME280;4395;48.554;8.820;2024-02-26T01:16:43;94027.97;;;6.50;56.42
8717;BME280;4395;48.554;8.820;2024-02-26T01:18:46;94035.94;;;6.54;56.12
8717;BME280;4395;48.554;8.820;2024-02-26T01:20:48;94030.56;;;6.50;55.90
8717;BME280;4395;48.554;8.820;2024-02-26T01:22:51;94031.63;;;6.44;56.47
8717;BME280;4395;48.554;8.820;2024-02-26T01:24:55;94033.31;;;6.30;56.12
8717;BME280;4395;48.554;8.820;2024-02-26T01:26:58;94030.78;;;6.25;56.40
8717;BME280;4395;48.554;8.820;2024-02-26T01:29:01;94016.84;;;6.21;56.59
8717;BME280;4395;48.554;8.820;2024-02-26T01:31:03;94025.66;;;6.20;55.96
8717;BME280;4395;48.554;8.820;2024-02-26T01:33:07;94020.97;;;6.22;56.07
8717;BME280;4395;48.554;8.820;2024-02-26T01:35:09;94014.78;;;6.23;55.72
8717;BME280;4395;48.554;8.820;2024-02-26T01:37:14;94009.34;;;6.25;54.58
8717;BME280;4395;48.554;8.820;2024-02-26T01:39:17;94005.09;;;6.34;52.99
8717;BME280;4395;48.554;8.820;2024-02-26T01:41:21;94007.44;;;6.35;52.34
8717;BME280;4395;48.554;8.820;2024-02-26T01:43:24;94020.78;;;6.42;51.45
8717;BME280;4395;48.554;8.820;2024-02-26T01:45:26;94032.75;;;6.38;52.71
8717;BME280;4395;48.554;8.820;2024-02-26T01:47:30;94040.97;;;6.40;52.61
8717;BME280;4395;48.554;8.820;2024-02-26T01:49:33;94048.69;;;6.45;53.34
8717;BME280;4395;48.554;8.820;2024-02-26T01:51:37;94050.78;;;6.43;55.01
8717;BME280;4395;48.554;8.820;2024-02-26T01:53:42;94054.47;;;6.37;56.16
8717;BME280;4395;48.554;8.820;2024-02-26T01:55:45;94057.84;;;6.33;55.95
8717;BME280;4395;48.554;8.820;2024-02-26T01:57:50;94050.34;;;6.31;55.55
8717;BME280;4395;48.554;8.820;2024-02-26T01:59:53;94050.16;;;6.28;56.02
8717;BME280;4395;48.554;8.820;2024-02-26T02:01:59;94057.66;;;6.24;55.88
8717;BME280;4395;48.554;8.820;2024-02-26T02:04:03;94053.28;;;6.25;55.47
8717;BME280;4395;48.554;8.820;2024-02-26T02:06:06;94053.81;;;6.22;53.92
8717;BME280;4395;48.554;8.820;2024-02-26T02:08:10;94058.16;;;6.26;54.81
8717;BME280;4395;48.554;8.820;2024-02-26T02:10:14;94050.09;;;6.33;53.30
8717;BME280;4395;48.554;8.820;2024-02-26T02:12:18;94042.59;;;6.31;52.18
8717;BME280;4395;48.554;8.820;2024-02-26T02:14:22;94031.19;;;6.37;52.99
8717;BME280;4395;48.554;8.820;2024-02-26T02:16:24;94025.94;;;6.47;53.44
8717;BME280;4395;48.554;8.820;2024-02-26T02:18:27;94028.94;;;6.55;52.26
8717;BME280;4395;48.554;8.820;2024-02-26T02:20:33;94026.94;;;6.52;51.54
8717;BME280;4395;48.554;8.820;2024-02-26T02:22:36;94024.81;;;6.54;51.93
8717;BME280;4395;48.554;8.820;2024-02-26T02:24:40;94031.81;;;6.53;51.73
8717;BME280;4395;48.554;8.820;2024-02-26T02:26:42;94032.56;;;6.54;51.76
8717;BME280;4395;48.554;8.820;2024-02-26T02:28:46;94026.09;;;6.56;52.43
8717;BME280;4395;48.554;8.820;2024-02-26T02:30:49;94038.75;;;6.58;52.20
8717;BME280;4395;48.554;8.820;2024-02-26T02:32:52;94036.66;;;6.60;53.15
8717;BME280;4395;48.554;8.820;2024-02-26T02:34:56;94043.41;;;6.56;53.62
8717;BME280;4395;48.554;8.820;2024-02-26T02:37:00;94044.44;;;6.60;55.32
8717;BME280;4395;48.554;8.820;2024-02-26T02:39:03;94061.50;;;6.61;55.92
8717;BME280;4395;48.554;8.820;2024-02-26T02:41:06;94051.69;;;6.58;56.40
8717;BME280;4395;48.554;8.820;2024-02-26T02:43:09;94046.47;;;6.63;56.42
8717;BME280;4395;48.554;8.820;2024-02-26T02:45:11;94036.59;;;6.65;57.36
8717;BME280;4395;48.554;8.820;2024-02-26T02:47:14;94036.06;;;6.68;57.11
8717;BME280;4395;48.554;8.820;2024-02-26T02:49:16;94042.53;;;6.65;57.75
8717;BME280;4395;48.554;8.820;2024-02-26T02:51:19;94046.41;;;6.68;58.55
8717;BME280;4395;48.554;8.820;2024-02-26T02:53:24;94046.41;;;6.68;58.74
8717;BME280;4395;48.554;8.820;2024-02-26T02:55:27;94044.88;;;6.67;59.61
8717;BME280;4395;48.554;8.820;2024-02-26T02:57:30;94052.13;;;6.65;59.92
8717;BME280;4395;48.554;8.820;2024-02-26T02:59:33;94045.13;;;6.65;60.57
8717;BME280;4395;48.554;8.820;2024-02-26T03:01:36;94053.22;;;6.59;60.99
8717;BME280;4395;48.554;8.820;2024-02-26T03:03:38;94040.28;;;6.59;61.51
8717;BME280;4395;48.554;8.820;2024-02-26T03:05:41;94032.00;;;6.62;61.45
8717;BME280;4395;48.554;8.820;2024-02-26T03:07:43;94030.47;;;6.61;61.93
8717;BME280;4395;48.554;8.820;2024-02-26T03:09:47;94027.03;;;6.65;62.23
8717;BME280;4395;48.554;8.820;2024-02-26T03:11:50;94006.34;;;6.65;62.23
8717;BME280;4395;48.554;8.820;2024-02-26T03:13:53;93997.00;;;6.69;62.18
8717;BME280;4395;48.554;8.820;2024-02-26T03:15:56;93992.09;;;6.68;62.13
8717;BME280;4395;48.554;8.820;2024-02-26T03:17:58;93989.28;;;6.64;61.98
8717;BME280;4395;48.554;8.820;2024-02-26T03:20:03;94000.97;;;6.62;62.39
8717;BME280;4395;48.554;8.820;2024-02-26T03:22:06;94000.41;;;6.65;63.29
8717;BME280;4395;48.554;8.820;2024-02-26T03:24:09;93991.06;;;6.69;63.94
8717;BME280;4395;48.554;8.820;2024-02-26T03:26:14;93981.47;;;6.69;64.07
8717;BME280;4395;48.554;8.820;2024-02-26T03:28:16;93989.47;;;6.73;64.43
8717;BME280;4395;48.554;8.820;2024-02-26T03:30:19;93990.94;;;6.79;64.40
8717;BME280;4395;48.554;8.820;2024-02-26T03:32:22;93986.75;;;6.83;64.94
8717;BME280;4395;48.554;8.820;2024-02-26T03:34:24;93995.56;;;6.82;64.88
8717;BME280;4395;48.554;8.820;2024-02-26T03:36:28;93985.75;;;6.79;64.48
8717;BME280;4395;48.554;8.820;2024-02-26T03:38:31;93989.47;;;6.73;64.89
8717;BME280;4395;48.554;8.820;2024-02-26T03:40:33;93982.25;;;6.70;64.43
8717;BME280;4395;48.554;8.820;2024-02-26T03:42:38;93985.47;;;6.62;63.57
8717;BME280;4395;48.554;8.820;2024-02-26T03:44:39;93987.84;;;6.53;64.02
8717;BME280;4395;48.554;8.820;2024-02-26T03:46:43;93975.44;;;6.55;64.81
8717;BME280;4395;48.554;8.820;2024-02-26T03:48:45;93991.28;;;6.48;64.59
8717;BME280;4395;48.554;8.820;2024-02-26T03:50:48;93990.22;;;6.49;65.19
8717;BME280;4395;48.554;8.820;2024-02-26T03:52:50;93987.06;;;6.53;65.06
8717;BME280;4395;48.554;8.820;2024-02-26T03:54:53;93990.78;;;6.46;64.96
8717;BME280;4395;48.554;8.820;2024-02-26T03:56:56;93990.38;;;6.34;65.67
8717;BME280;4395;48.554;8.820;2024-02-26T03:59:00;93992.22;;;6.29;65.59
8717;BME280;4395;48.554;8.820;2024-02-26T04:01:04;93993.56;;;6.26;66.22
8717;BME280;4395;48.554;8.820;2024-02-26T04:03:06;93999.25;;;6.23;66.67
8717;BME280;4395;48.554;8.820;2024-02-26T04:05:10;93994.09;;;6.23;66.97
8717;BME280;4395;48.554;8.820;2024-02-26T04:07:12;93989.44;;;6.25;67.06
8717;BME280;4395;48.554;8.820;2024-02-26T04:09:15;93987.81;;;6.29;66.58
8717;BME280;4395;48.554;8.820;2024-02-26T04:11:18;93995.53;;;6.34;66.81
8717;BME280;4395;48.554;8.820;2024-02-26T04:13:21;93991.38;;;6.38;65.31
8717;BME280;4395;48.554;8.820;2024-02-26T04:15:25;93996.59;;;6.33;65.46
8717;BME280;4395;48.554;8.820;2024-02-26T04:17:29;93998.91;;;6.35;65.09
8717;BME280;4395;48.554;8.820;2024-02-26T04:19:32;93995.00;;;6.37;65.62
8717;BME280;4395;48.554;8.820;2024-02-26T04:21:35;94003.97;;;6.45;65.84
8717;BME280;4395;48.554;8.820;2024-02-26T04:23:38;94002.13;;;6.50;63.89
8717;BME280;4395;48.554;8.820;2024-02-26T04:25:41;93998.50;;;6.52;64.23
8717;BME280;4395;48.554;8.820;2024-02-26T04:27:43;94000.50;;;6.55;64.48
8717;BME280;4395;48.554;8.820;2024-02-26T04:29:46;93996.38;;;6.54;64.64
8717;BME280;4395;48.554;8.820;2024-02-26T04:31:49;93994.28;;;6.56;64.93
8717;BME280;4395;48.554;8.820;2024-02-26T04:33:52;93997.38;;;6.58;65.09
8717;BME280;4395;48.554;8.820;2024-02-26T04:35:55;93989.09;;;6.61;65.39
8717;BME280;4395;48.554;8.820;2024-02-26T04:37:58;93994.25;;;6.61;65.16
8717;BME280;4395;48.554;8.820;2024-02-26T04:40:01;93999.44;;;6.61;64.96
8717;BME280;4395;48.554;8.820;2024-02-26T04:42:06;94013.91;;;6.62;65.37
8717;BME280;4395;48.554;8.820;2024-02-26T04:44:09;94015.03;;;6.50;65.42
8717;BME280;4395;48.554;8.820;2024-02-26T04:46:11;94022.06;;;6.45;65.85
8717;BME280;4395;48.554;8.820;2024-02-26T04:48:15;94018.97;;;6.43;67.05
8717;BME280;4395;48.554;8.820;2024-02-26T04:50:18;94017.66;;;6.45;67.19
8717;BME280;4395;48.554;8.820;2024-02-26T04:52:21;94020.75;;;6.47;67.28
8717;BME280;4395;48.554;8.820;2024-02-26T04:54:24;94022.81;;;6.50;67.35
8717;BME280;4395;48.554;8.820;2024-02-26T04:56:27;94023.84;;;6.49;67.54
8717;BME280;4395;48.554;8.820;2024-02-26T04:58:30;94030.75;;;6.54;67.51
8717;BME280;4395;48.554;8.820;2024-02-26T05:00:32;94028.94;;;6.55;67.69
8717;BME280;4395;48.554;8.820;2024-02-26T05:02:35;94038.25;;;6.56;67.90
8717;BME280;4395;48.554;8.820;2024-02-26T05:04:41;94043.97;;;6.53;67.84
8717;BME280;4395;48.554;8.820;2024-02-26T05:06:44;94052.81;;;6.46;67.61
8717;BME280;4395;48.554;8.820;2024-02-26T05:08:47;94059.56;;;6.42;68.24
8717;BME280;4395;48.554;8.820;2024-02-26T05:10:49;94062.41;;;6.41;68.57
8717;BME280;4395;48.554;8.820;2024-02-26T05:12:52;94056.28;;;6.37;68.81
8717;BME280;4395;48.554;8.820;2024-02-26T05:14:55;94051.88;;;6.37;68.83
8717;BME280;4395;48.554;8.820;2024-02-26T05:16:58;94053.44;;;6.33;69.21
8717;BME280;4395;48.554;8.820;2024-02-26T05:19:00;94058.88;;;6.32;69.54
8717;BME280;4395;48.554;8.820;2024-02-26T05:21:05;94048.31;;;6.28;70.23
8717;BME280;4395;48.554;8.820;2024-02-26T05:23:09;94049.09;;;6.29;70.26
8717;BME280;4395;48.554;8.820;2024-02-26T05:25:12;94049.09;;;6.29;70.70
8717;BME280;4395;48.554;8.820;2024-02-26T05:27:17;94047.31;;;6.24;70.02
8717;BME280;4395;48.554;8.820;2024-02-26T05:29:19;94034.94;;;6.21;70.13
8717;BME280;4395;48.554;8.820;2024-02-26T05:31:22;94030.56;;;6.17;70.21
8717;BME280;4395;48.554;8.820;2024-02-26T05:33:25;94026.75;;;6.14;70.53
8717;BME280;4395;48.554;8.820;2024-02-26T05:35:28;94024.63;;;6.16;70.69
8717;BME280;4395;48.554;8.820;2024-02-26T05:37:32;94026.41;;;6.21;70.66
8717;BME280;4395;48.554;8.820;2024-02-26T05:39:35;94028.28;;;6.15;70.26
8717;BME280;4395;48.554;8.820;2024-02-26T05:41:37;94026.69;;;6.19;70.79
8717;BME280;4395;48.554;8.820;2024-02-26T05:43:40;94032.69;;;6.14;70.50
8717;BME280;4395;48.554;8.820;2024-02-26T05:45:43;94035.75;;;6.17;70.96
8717;BME280;4395;48.554;8.820;2024-02-26T05:47:46;94039.41;;;6.16;71.41
8717;BME280;4395;48.554;8.820;2024-02-26T05:49:48;94046.41;;;6.10;71.45
8717;BME280;4395;48.554;8.820;2024-02-26T05:51:51;94039.22;;;6.02;71.56
8717;BME280;4395;48.554;8.820;2024-02-26T05:53:55;94045.72;;;5.99;71.83
8717;BME280;4395;48.554;8.820;2024-02-26T05:55:58;94047.78;;;5.97;72.10
8717;BME280;4395;48.554;8.820;2024-02-26T05:58:00;94059.41;;;5.95;72.16
8717;BME280;4395;48.554;8.820;2024-02-26T06:00:04;94063.59;;;5.91;72.33
8717;BME280;4395;48.554;8.820;2024-02-26T06:02:13;94059.41;;;5.95;72.68
8717;BME280;4395;48.554;8.820;2024-02-26T06:04:16;94073.38;;;5.94;72.76
8717;BME280;4395;48.554;8.820;2024-02-26T06:06:19;94079.34;;;5.89;73.28
8717;BME280;4395;48.554;8.820;2024-02-26T06:08:25;94077.53;;;5.85;73.41
8717;BME280;4395;48.554;8.820;2024-02-26T06:10:28;94086.84;;;5.86;74.30
8717;BME280;4395;48.554;8.820;2024-02-26T06:12:31;94078.06;;;5.87;74.13
8717;BME280;4395;48.554;8.820;2024-02-26T06:14:34;94084.25;;;5.86;74.36
8717;BME280;4395;48.554;8.820;2024-02-26T06:16:37;94084.00;;;5.82;73.66
8717;BME280;4395;48.554;8.820;2024-02-26T06:18:43;94097.75;;;5.77;73.82
8717;BME280;4395;48.554;8.820;2024-02-26T06:20:46;94092.31;;;5.79;73.73
8717;BME280;4395;48.554;8.820;2024-02-26T06:22:50;94096.16;;;5.82;73.65
8717;BME280;4395;48.554;8.820;2024-02-26T06:24:53;94090.72;;;5.83;73.95
8717;BME280;4395;48.554;8.820;2024-02-26T06:26:57;94100.53;;;5.86;73.94
8717;BME280;4395;48.554;8.820;2024-02-26T06:29:00;94099.19;;;5.94;73.92
8717;BME280;4395;48.554;8.820;2024-02-26T06:31:04;94111.84;;;6.00;74.08
8717;BME280;4395;48.554;8.820;2024-02-26T06:33:07;94101.25;;;6.02;73.85
8717;BME280;4395;48.554;8.820;2024-02-26T06:35:10;94108.94;;;6.07;73.37
8717;BME280;4395;48.554;8.820;2024-02-26T06:37:13;94113.13;;;6.03;73.74
8717;BME280;4395;48.554;8.820;2024-02-26T06:39:16;94128.06;;;6.06;74.25
8717;BME280;4395;48.554;8.820;2024-02-26T06:41:19;94110.47;;;6.08;74.22
8717;BME280;4395;48.554;8.820;2024-02-26T06:43:24;94121.59;;;6.08;73.46
8717;BME280;4395;48.554;8.820;2024-02-26T06:45:27;94124.44;;;6.07;73.79
8717;BME280;4395;48.554;8.820;2024-02-26T06:47:29;94115.13;;;6.11;73.50
8717;BME280;4395;48.554;8.820;2024-02-26T06:49:32;94122.09;;;6.10;72.81
8717;BME280;4395;48.554;8.820;2024-02-26T06:51:35;94121.34;;;6.05;72.99
8717;BME280;4395;48.554;8.820;2024-02-26T06:53:38;94122.97;;;5.96;72.52
8717;BME280;4395;48.554;8.820;2024-02-26T06:55:41;94116.28;;;5.85;72.91
8717;BME280;4395;48.554;8.820;2024-02-26T06:57:44;94128.69;;;5.83;73.54
8717;BME280;4395;48.554;8.820;2024-02-26T06:59:47;94124.06;;;5.79;73.46
8717;BME280;4395;48.554;8.820;2024-02-26T07:01:50;94124.06;;;5.79;73.47
8717;BME280;4395;48.554;8.820;2024-02-26T07:03:53;94120.97;;;5.77;73.56
8717;BME280;4395;48.554;8.820;2024-02-26T07:05:55;94115.81;;;5.77;73.00
8717;BME280;4395;48.554;8.820;2024-02-26T07:07:58;94120.97;;;5.77;73.25
8717;BME280;4395;48.554;8.820;2024-02-26T07:10:00;94117.38;;;5.73;73.02
8717;BME280;4395;48.554;8.820;2024-02-26T07:12:05;94121.50;;;5.74;73.03
8717;BME280;4395;48.554;8.820;2024-02-26T07:14:08;94118.41;;;5.77;72.65
8717;BME280;4395;48.554;8.820;2024-02-26T07:16:12;94124.59;;;5.76;73.21
8717;BME280;4395;48.554;8.820;2024-02-26T07:18:15;94125.06;;;5.84;73.43
8717;BME280;4395;48.554;8.820;2024-02-26T07:20:18;94117.34;;;5.89;73.62
8717;BME280;4395;48.554;8.820;2024-02-26T07:22:21;94119.34;;;5.97;73.82
8717;BME280;4395;48.554;8.820;2024-02-26T07:24:23;94123.44;;;6.03;73.83
8717;BME280;4395;48.554;8.820;2024-02-26T07:26:26;94120.28;;;6.11;73.64
8717;BME280;4395;48.554;8.820;2024-02-26T07:28:31;94124.94;;;6.14;73.33
8717;BME280;4395;48.554;8.820;2024-02-26T07:30:34;94122.28;;;6.19;73.19
8717;BME280;4395;48.554;8.820;2024-02-26T07:32:38;94119.19;;;6.22;73.00
8717;BME280;4395;48.554;8.820;2024-02-26T07:34:41;94127.94;;;6.26;73.24
8717;BME280;4395;48.554;8.820;2024-02-26T07:36:46;94129.19;;;6.29;73.26
8717;BME280;4395;48.554;8.820;2024-02-26T07:38:49;94132.03;;;6.32;73.16
8717;BME280;4395;48.554;8.820;2024-02-26T07:40:53;94129.94;;;6.39;72.97
8717;BME280;4395;48.554;8.820;2024-02-26T07:43:04;94129.16;;;6.39;72.53
8717;BME280;4395;48.554;8.820;2024-02-26T07:45:07;94137.94;;;6.38;72.06
8717;BME280;4395;48.554;8.820;2024-02-26T07:47:10;94144.38;;;6.40;72.34
8717;BME280;4395;48.554;8.820;2024-02-26T07:49:14;94141.50;;;6.47;72.52
8717;BME280;4395;48.554;8.820;2024-02-26T07:51:17;94151.50;;;6.54;72.46
8717;BME280;4395;48.554;8.820;2024-02-26T07:53:20;94136.75;;;6.59;72.89
8717;BME280;4395;48.554;8.820;2024-02-26T07:55:23;94133.91;;;6.61;73.27
8717;BME280;4395;48.554;8.820;2024-02-26T07:57:26;94136.22;;;6.62;73.44
8717;BME280;4395;48.554;8.820;2024-02-26T07:59:29;94141.13;;;6.64;73.86
8717;BME280;4395;48.554;8.820;2024-02-26T08:01:32;94140.00;;;6.70;74.17
8717;BME280;4395;48.554;8.820;2024-02-26T08:03:37;94146.19;;;6.74;74.42
8717;BME280;4395;48.554;8.820;2024-02-26T08:05:41;94145.38;;;6.78;74.31
8717;BME280;4395;48.554;8.820;2024-02-26T08:07:45;94144.56;;;6.83;74.45
8717;BME280;4395;48.554;8.820;2024-02-26T08:09:47;94136.81;;;6.83;74.22
8717;BME280;4395;48.554;8.820;2024-02-26T08:11:50;94146.66;;;6.81;74.48
8717;BME280;4395;48.554;8.820;2024-02-26T08:13:53;94136.81;;;6.83;74.52
8717;BME280;4395;48.554;8.820;2024-02-26T08:15:56;94139.63;;;6.86;74.54
8717;BME280;4395;48.554;8.820;2024-02-26T08:17:58;94140.88;;;6.89;74.43
8717;BME280;4395;48.554;8.820;2024-02-26T08:20:02;94147.13;;;6.88;74.11
8717;BME280;4395;48.554;8.820;2024-02-26T08:22:06;94146.03;;;6.89;73.80
8717;BME280;4395;48.554;8.820;2024-02-26T08:24:09;94139.34;;;6.88;73.59
8717;BME280;4395;48.554;8.820;2024-02-26T08:26:11;94142.41;;;6.90;73.66
8717;BME280;4395;48.554;8.820;2024-02-26T08:28:14;94137.47;;;6.94;73.79
8717;BME280;4395;48.554;8.820;2024-02-26T08:30:19;94144.94;;;7.00;73.84
8717;BME280;4395;48.554;8.820;2024-02-26T08:32:22;94146.41;;;7.06;73.69
8717;BME280;4395;48.554;8.820;2024-02-26T08:34:25;94152.63;;;7.05;73.24
8717;BME280;4395;48.554;8.820;2024-02-26T08:36:28;94148.50;;;7.04;73.47
8717;BME280;4395;48.554;8.820;2024-02-26T08:38:32;94147.06;;;6.93;72.53
8717;BME280;4395;48.554;8.820;2024-02-26T08:40:37;94149.19;;;6.86;72.48
8717;BME280;4395;48.554;8.820;2024-02-26T08:42:39;94147.38;;;6.86;72.86
8717;BME280;4395;48.554;8.820;2024-02-26T08:44:42;94152.75;;;6.90;73.27
8717;BME280;4395;48.554;8.820;2024-02-26T08:46:45;94149.63;;;6.93;73.29
8717;BME280;4395;48.554;8.820;2024-02-26T08:48:48;94154.53;;;6.95;73.36
8717;BME280;4395;48.554;8.820;2024-02-26T08:50:51;94152.19;;;6.98;73.46
8717;BME280;4395;48.554;8.820;2024-02-26T08:52:54;94134.00;;;7.03;73.89
8717;BME280;4395;48.554;8.820;2024-02-26T08:54:58;94137.88;;;7.06;73.72
8717;BME280;4395;48.554;8.820;2024-02-26T08:57:01;94141.25;;;7.06;72.95
8717;BME280;4395;48.554;8.820;2024-02-26T08:59:04;94135.72;;;7.13;73.40
8717;BME280;4395;48.554;8.820;2024-02-26T09:01:07;94140.06;;;7.22;73.75
8717;BME280;4395;48.554;8.820;2024-02-26T09:03:09;94154.47;;;7.29;73.96
8717;BME280;4395;48.554;8.820;2024-02-26T09:05:12;94149.75;;;7.36;74.01
8717;BME280;4395;48.554;8.820;2024-02-26T09:07:14;94158.22;;;7.41;73.83
8717;BME280;4395;48.554;8.820;2024-02-26T09:09:17;94153.69;;;7.52;73.70
8717;BME280;4395;48.554;8.820;2024-02-26T09:11:21;94149.06;;;7.49;73.47
8717;BME280;4395;48.554;8.820;2024-02-26T09:13:24;94159.00;;;7.42;73.07
8717;BME280;4395;48.554;8.820;2024-02-26T09:15:27;94159.41;;;7.49;73.28
8717;BME280;4395;48.554;8.820;2024-02-26T09:17:30;94158.94;;;7.47;72.91
8717;BME280;4395;48.554;8.820;2024-02-26T09:19:33;94161.59;;;7.42;71.81
8717;BME280;4395;48.554;8.820;2024-02-26T09:21:35;94151.34;;;7.32;72.20
8717;BME280;4395;48.554;8.820;2024-02-26T09:23:38;94148.63;;;7.42;72.83
8717;BME280;4395;48.554;8.820;2024-02-26T09:25:41;94149.06;;;7.49;73.17
8717;BME280;4395;48.554;8.820;2024-02-26T09:27:45;94153.53;;;7.67;73.42
8717;BME280;4395;48.554;8.820;2024-02-26T09:29:48;94161.63;;;7.84;72.99
8717;BME280;4395;48.554;8.820;2024-02-26T09:31:51;94154.97;;;7.97;71.35
8717;BME280;4395;48.554;8.820;2024-02-26T09:33:54;94154.63;;;8.04;70.30
8717;BME280;4395;48.554;8.820;2024-02-26T09:36:03;94152.94;;;8.13;70.01
8717;BME280;4395;48.554;8.820;2024-02-26T09:38:07;94149.84;;;8.11;68.68
8717;BME280;4395;48.554;8.820;2024-02-26T09:40:11;94148.81;;;8.12;68.20
8717;BME280;4395;48.554;8.820;2024-02-26T09:42:15;94158.47;;;8.25;68.98
8717;BME280;4395;48.554;8.820;2024-02-26T09:44:23;94170.34;;;8.31;68.44
8717;BME280;4395;48.554;8.820;2024-02-26T09:46:27;94168.13;;;8.43;67.81
8717;BME280;4395;48.554;8.820;2024-02-26T09:48:31;94169.91;;;8.61;67.80
8717;BME280;4395;48.554;8.820;2024-02-26T09:50:33;94166.03;;;8.78;65.10
8717;BME280;4395;48.554;8.820;2024-02-26T09:52:37;94173.25;;;8.81;62.06
8717;BME280;4395;48.554;8.820;2024-02-26T09:54:40;94164.56;;;8.72;63.57
8717;BME280;4395;48.554;8.820;2024-02-26T09:56:45;94175.84;;;8.81;64.19
8717;BME280;4395;48.554;8.820;2024-02-26T09:59:06;94175.75;;;8.86;63.56
8717;BME280;4395;48.554;8.820;2024-02-26T10:01:17;94180.78;;;8.96;63.62
8717;BME280;4395;48.554;8.820;2024-02-26T10:03:21;94180.16;;;9.04;64.12
8717;BME280;4395;48.554;8.820;2024-02-26T10:05:24;94190.38;;;9.14;64.78
8717;BME280;4395;48.554;8.820;2024-02-26T10:07:29;94201.63;;;9.23;64.80
8717;BME280;4395;48.554;8.820;2024-02-26T10:09:31;94198.84;;;9.33;64.63
8717;BME280;4395;48.554;8.820;2024-02-26T10:11:35;94196.06;;;9.44;65.01
8717;BME280;4395;48.554;8.820;2024-02-26T10:13:38;94186.09;;;9.51;63.60
8717;BME280;4395;48.554;8.820;2024-02-26T10:15:41;94190.31;;;9.60;63.73
8717;BME280;4395;48.554;8.820;2024-02-26T10:17:44;94183.38;;;9.69;63.65
8717;BME280;4395;48.554;8.820;2024-02-26T10:19:47;94189.16;;;9.80;61.99
8717;BME280;4395;48.554;8.820;2024-02-26T10:21:49;94192.16;;;9.87;61.90
8717;BME280;4395;48.554;8.820;2024-02-26T10:23:52;94188.38;;;9.93;60.95
8717;BME280;4395;48.554;8.820;2024-02-26T10:25:56;94190.13;;;9.98;59.60
8717;BME280;4395;48.554;8.820;2024-02-26T10:28:00;94177.97;;;9.93;58.83
8717;BME280;4395;48.554;8.820;2024-02-26T10:30:04;94177.41;;;9.96;59.52
8717;BME280;4395;48.554;8.820;2024-02-26T10:32:19;94182.50;;;10.01;60.35
8717;BME280;4395;48.554;8.820;2024-02-26T10:34:23;94178.75;;;10.07;59.49
8717;BME280;4395;48.554;8.820;2024-02-26T10:36:27;94189.34;;;9.97;57.51
8717;BME280;4395;48.554;8.820;2024-02-26T10:38:48;94183.00;;;9.76;57.70
8717;BME280;4395;48.554;8.820;2024-02-26T10:40:53;94193.22;;;9.86;58.99
8717;BME280;4395;48.554;8.820;2024-02-26T10:42:57;94192.16;;;10.01;59.58
8717;BME280;4395;48.554;8.820;2024-02-26T10:45:05;94203.59;;;10.14;58.82
8717;BME280;4395;48.554;8.820;2024-02-26T10:47:07;94216.91;;;10.26;58.88
8717;BME280;4395;48.554;8.820;2024-02-26T10:49:14;94219.78;;;10.38;58.39
8717;BME280;4395;48.554;8.820;2024-02-26T10:51:26;94219.25;;;10.50;57.82
8717;BME280;4395;48.554;8.820;2024-02-26T10:53:29;94219.31;;;10.58;57.67
8717;BME280;4395;48.554;8.820;2024-02-26T10:55:34;94213.31;;;10.71;57.01
8717;BME280;4395;48.554;8.820;2024-02-26T10:57:40;94211.53;;;10.80;56.82
8717;BME280;4395;48.554;8.820;2024-02-26T10:59:45;94206.47;;;10.98;56.95
8717;BME280;4395;48.554;8.820;2024-02-26T11:01:47;94211.75;;;11.15;56.38
8717;BME280;4395;48.554;8.820;2024-02-26T11:03:52;94209.81;;;11.21;56.44
8717;BME280;4395;48.554;8.820;2024-02-26T11:05:55;94215.53;;;11.31;56.19
8717;BME280;4395;48.554;8.820;2024-02-26T11:08:02;94212.97;;;11.40;55.38
8717;BME280;4395;48.554;8.820;2024-02-26T11:10:06;94221.25;;;11.42;54.75
8717;BME280;4395;48.554;8.820;2024-02-26T11:12:10;94224.47;;;11.39;55.34
8717;BME280;4395;48.554;8.820;2024-02-26T11:14:14;94220.06;;;11.48;55.92
8717;BME280;4395;48.554;8.820;2024-02-26T11:16:18;94224.25;;;11.58;55.47
8717;BME280;4395;48.554;8.820;2024-02-26T11:18:23;94228.16;;;11.69;55.45
8717;BME280;4395;48.554;8.820;2024-02-26T11:20:29;94228.50;;;11.76;55.57